createdAt,value
2022-11-17T00:00:46.815Z,14.88
2022-11-17T00:03:19.755Z,14.88
2022-11-17T00:05:48.141Z,14.88
2022-11-17T00:08:16.490Z,14.88
2022-11-17T00:10:44.859Z,14.86
2022-11-17T00:13:36.161Z,14.84
2022-11-17T00:16:04.791Z,14.81
2022-11-17T00:18:48.379Z,14.78
2022-11-17T00:21:23.904Z,14.75
2022-11-17T00:23:52.478Z,14.73
2022-11-17T00:26:22.849Z,14.73
2022-11-17T00:28:54.690Z,14.73
2022-11-17T00:31:41.814Z,14.75
2022-11-17T00:34:15.555Z,14.74
2022-11-17T00:36:46.013Z,14.75
2022-11-17T00:39:16.228Z,14.77
2022-11-17T00:41:44.974Z,14.78
2022-11-17T00:44:14.128Z,14.80
2022-11-17T00:46:43.141Z,14.80
2022-11-17T00:49:14.674Z,14.81
2022-11-17T00:51:43.468Z,14.82
2022-11-17T00:54:14.009Z,14.81
2022-11-17T00:56:42.417Z,14.80
2022-11-17T00:59:11.446Z,14.79
2022-11-17T01:01:40.836Z,14.79
2022-11-17T01:04:09.696Z,14.78
2022-11-17T01:06:42.195Z,14.76
2022-11-17T01:09:14.761Z,14.76
2022-11-17T01:11:43.893Z,14.76
2022-11-17T01:14:16.525Z,14.75
2022-11-17T01:16:45.558Z,14.73
2022-11-17T01:19:15.989Z,14.70
2022-11-17T01:21:46.846Z,14.67
2022-11-17T01:24:17.256Z,14.65
2022-11-17T01:26:47.066Z,14.65
2022-11-17T01:29:18.150Z,14.67
2022-11-17T01:31:50.534Z,14.69
2022-11-17T01:34:19.364Z,14.71
2022-11-17T01:37:06.415Z,14.74
2022-11-17T01:39:34.785Z,14.75
2022-11-17T01:42:12.359Z,14.77
2022-11-17T01:45:06.800Z,14.74
2022-11-17T01:47:43.948Z,14.73
2022-11-17T01:50:30.767Z,14.72
2022-11-17T01:53:03.668Z,14.74
2022-11-17T01:55:36.940Z,14.71
2022-11-17T01:58:10.019Z,14.66
2022-11-17T02:00:38.639Z,14.62
2022-11-17T02:03:07.350Z,14.55
2022-11-17T02:05:43.587Z,14.47
2022-11-17T02:08:14.313Z,14.43
2022-11-17T02:10:48.592Z,14.38
2022-11-17T02:13:21.401Z,14.37
2022-11-17T02:15:50.007Z,14.37
2022-11-17T02:18:20.532Z,14.39
2022-11-17T02:21:18.438Z,14.39
2022-11-17T02:24:23.965Z,14.39
2022-11-17T02:27:51.140Z,14.36
2022-11-17T02:30:22.578Z,14.35
2022-11-17T02:33:03.727Z,14.33
2022-11-17T02:35:45.100Z,14.34
2022-11-17T02:38:28.214Z,14.34
2022-11-17T02:41:06.257Z,14.36
2022-11-17T02:44:02.835Z,14.40
2022-11-17T02:46:38.848Z,14.42
2022-11-17T02:49:14.595Z,14.43
2022-11-17T02:51:45.054Z,14.45
2022-11-17T02:54:14.301Z,14.47
2022-11-17T02:56:43.916Z,14.47
2022-11-17T02:59:17.036Z,14.49
2022-11-17T03:02:25.084Z,14.50
2022-11-17T03:05:10.975Z,14.54
2022-11-17T03:08:03.572Z,14.55
2022-11-17T03:10:47.847Z,14.60
2022-11-17T03:13:22.008Z,14.61
2022-11-17T03:15:57.534Z,14.61
2022-11-17T03:18:36.213Z,14.62
2022-11-17T03:21:13.240Z,14.63
2022-11-17T03:23:47.256Z,14.62
2022-11-17T03:26:22.225Z,14.62
2022-11-17T03:28:50.642Z,14.63
2022-11-17T03:31:23.895Z,14.65
2022-11-17T03:33:54.025Z,14.69
2022-11-17T03:36:28.260Z,14.71
2022-11-17T03:39:03.028Z,14.73
2022-11-17T03:41:37.895Z,14.77
2022-11-17T03:44:07.777Z,14.80
2022-11-17T03:49:36.659Z,14.81
2022-11-17T03:52:05.616Z,14.83
2022-11-17T03:54:34.752Z,14.83
2022-11-17T03:57:11.125Z,14.84
2022-11-17T03:59:48.085Z,14.82
2022-11-17T04:02:19.800Z,14.81
2022-11-17T04:05:11.195Z,14.78
2022-11-17T04:07:41.913Z,14.76
2022-11-17T04:10:13.988Z,14.74
2022-11-17T04:13:00.128Z,14.74
2022-11-17T04:15:46.347Z,14.68
2022-11-17T04:18:16.747Z,14.61
2022-11-17T04:20:45.568Z,14.56
2022-11-17T04:23:16.226Z,14.50
2022-11-17T04:26:04.259Z,14.46
2022-11-17T04:28:40.517Z,14.39
2022-11-17T04:31:12.713Z,14.33
2022-11-17T04:33:45.062Z,14.30
2022-11-17T04:36:16.900Z,14.26
2022-11-17T04:38:46.999Z,14.22
2022-11-17T04:41:34.754Z,14.19
2022-11-17T04:44:04.315Z,14.16
2022-11-17T04:46:35.019Z,14.13
2022-11-17T04:49:05.622Z,14.11
2022-11-17T04:51:35.538Z,14.11
2022-11-17T04:54:05.012Z,14.10
2022-11-17T04:56:34.161Z,14.10
2022-11-17T04:59:02.565Z,14.09
2022-11-17T05:01:31.144Z,14.09
2022-11-17T05:04:01.401Z,14.08
2022-11-17T05:06:33.782Z,14.07
2022-11-17T05:09:06.060Z,14.07
2022-11-17T05:11:52.079Z,14.06
2022-11-17T05:14:22.857Z,14.02
2022-11-17T05:17:10.520Z,14.00
2022-11-17T05:19:42.226Z,13.94
2022-11-17T05:22:31.963Z,13.94
2022-11-17T05:25:00.373Z,13.91
2022-11-17T05:27:29.067Z,13.89
2022-11-17T05:29:57.438Z,13.88
2022-11-17T05:32:25.864Z,13.89
2022-11-17T05:34:54.235Z,13.89
2022-11-17T05:37:24.097Z,13.89
2022-11-17T05:39:52.459Z,13.90
2022-11-17T05:42:20.832Z,13.93
2022-11-17T05:44:49.500Z,13.92
2022-11-17T05:47:17.861Z,13.93
2022-11-17T05:49:46.358Z,13.93
2022-11-17T05:52:14.723Z,13.92
2022-11-17T05:54:44.474Z,13.91
2022-11-17T05:57:16.323Z,13.91
2022-11-17T05:59:50.007Z,13.90
2022-11-17T06:02:25.077Z,13.91
2022-11-17T06:04:53.689Z,13.93
2022-11-17T06:07:22.385Z,13.96
2022-11-17T06:09:53.278Z,13.95
2022-11-17T06:12:21.940Z,13.98
2022-11-17T06:14:50.309Z,13.98
2022-11-17T06:17:25.318Z,13.97
2022-11-17T06:19:59.018Z,13.93
2022-11-17T06:22:28.416Z,13.91
2022-11-17T06:24:59.728Z,13.86
2022-11-17T06:27:29.233Z,13.83
2022-11-17T06:30:00.673Z,13.81
2022-11-17T06:32:29.619Z,13.82
2022-11-17T06:34:58.435Z,13.82
2022-11-17T06:37:27.333Z,13.83
2022-11-17T06:39:57.082Z,13.85
2022-11-17T06:42:39.490Z,13.88
2022-11-17T06:45:09.678Z,13.89
2022-11-17T06:47:38.122Z,13.95
2022-11-17T06:50:08.175Z,13.98
2022-11-17T06:52:36.517Z,14.03
2022-11-17T06:55:07.672Z,14.06
2022-11-17T06:57:36.005Z,14.11
2022-11-17T07:00:06.207Z,14.14
2022-11-17T07:02:34.869Z,14.18
2022-11-17T07:05:03.264Z,14.22
2022-11-17T07:07:31.654Z,14.27
2022-11-17T07:10:00.049Z,14.30
2022-11-17T07:12:29.773Z,14.33
2022-11-17T07:14:58.150Z,14.35
2022-11-17T07:17:26.508Z,14.38
2022-11-17T07:19:55.110Z,14.42
2022-11-17T07:22:23.749Z,14.47
2022-11-17T07:24:52.143Z,14.54
2022-11-17T07:27:20.513Z,14.55
2022-11-17T07:29:50.245Z,14.56
2022-11-17T07:32:18.598Z,14.56
2022-11-17T07:34:46.960Z,14.53
2022-11-17T07:37:15.376Z,14.48
2022-11-17T07:39:43.765Z,14.43
2022-11-17T07:42:12.135Z,14.39
2022-11-17T07:44:40.483Z,14.33
2022-11-17T07:47:10.210Z,14.29
2022-11-17T07:49:38.611Z,14.26
2022-11-17T07:52:07.012Z,14.25
2022-11-17T07:54:35.437Z,14.23
2022-11-17T07:57:03.803Z,14.24
2022-11-17T07:59:32.216Z,14.26
2022-11-17T08:02:00.611Z,14.28
2022-11-17T08:04:30.584Z,14.30
2022-11-17T08:06:58.967Z,14.34
2022-11-17T08:09:27.417Z,14.37
2022-11-17T08:11:57.577Z,14.45
2022-11-17T08:14:25.934Z,14.49
2022-11-17T08:16:54.263Z,14.55
2022-11-17T08:19:22.631Z,14.60
2022-11-17T08:21:52.367Z,14.66
2022-11-17T08:24:20.856Z,14.81
2022-11-17T08:26:49.229Z,14.96
2022-11-17T08:29:17.651Z,15.13
2022-11-17T08:31:47.879Z,15.29
2022-11-17T08:34:16.509Z,15.41
2022-11-17T08:36:45.198Z,15.51
2022-11-17T08:39:15.489Z,15.58
2022-11-17T08:41:43.916Z,15.64
2022-11-17T08:44:12.366Z,15.70
2022-11-17T08:46:40.799Z,15.75
2022-11-17T08:49:09.192Z,15.80
2022-11-17T08:51:37.644Z,15.84
2022-11-17T08:54:06.171Z,15.88
2022-11-17T08:56:35.998Z,15.91
2022-11-17T08:59:04.464Z,15.95
2022-11-17T09:01:33.064Z,16.00
2022-11-17T09:04:01.729Z,16.06
2022-11-17T09:06:30.083Z,16.13
2022-11-17T09:08:58.916Z,16.20
2022-11-17T09:11:27.748Z,16.25
2022-11-17T09:13:57.963Z,16.29
2022-11-17T09:16:26.424Z,16.32
2022-11-17T09:18:58.570Z,16.34
2022-11-17T09:21:27.910Z,16.40
2022-11-17T09:23:56.931Z,16.43
2022-11-17T09:26:25.343Z,16.48
2022-11-17T09:28:53.756Z,16.51
2022-11-17T09:31:24.374Z,16.51
2022-11-17T09:33:53.945Z,16.52
2022-11-17T09:36:22.766Z,16.51
2022-11-17T09:38:51.190Z,16.51
2022-11-17T09:41:29.666Z,16.49
2022-11-17T09:44:19.356Z,16.48
2022-11-17T09:47:04.267Z,16.50
2022-11-17T09:49:42.600Z,16.53
2022-11-17T09:52:20.114Z,16.57
2022-11-17T09:54:54.801Z,16.62
2022-11-17T09:57:35.068Z,16.64
2022-11-17T10:00:15.771Z,16.67
2022-11-17T10:02:46.238Z,16.68
2022-11-17T10:05:17.327Z,16.66
2022-11-17T10:07:51.240Z,16.62
2022-11-17T10:10:23.848Z,16.58
2022-11-17T10:12:58.388Z,16.55
2022-11-17T10:15:34.634Z,16.51
2022-11-17T10:18:05.670Z,16.51
2022-11-17T10:20:34.088Z,16.50
2022-11-17T10:23:05.777Z,16.46
2022-11-17T10:25:40.163Z,16.41
2022-11-17T10:28:23.434Z,16.38
2022-11-17T10:30:56.528Z,16.34
2022-11-17T10:33:39.883Z,16.32
2022-11-17T10:36:19.091Z,16.31
2022-11-17T10:38:50.020Z,16.32
2022-11-17T10:41:21.367Z,16.28
2022-11-17T10:44:01.369Z,16.25
2022-11-17T10:46:40.585Z,16.24
2022-11-17T10:49:27.179Z,16.21
2022-11-17T10:52:08.525Z,16.22
2022-11-17T10:54:37.092Z,16.22
2022-11-17T10:57:13.668Z,16.22
2022-11-17T10:59:45.569Z,16.22
2022-11-17T11:02:31.420Z,16.18
2022-11-17T11:05:10.714Z,16.17
2022-11-17T11:07:40.028Z,16.20
2022-11-17T11:10:17.541Z,16.20
2022-11-17T11:12:51.678Z,16.22
2022-11-17T11:15:23.737Z,16.22
2022-11-17T11:17:53.249Z,16.24
2022-11-17T11:20:34.582Z,16.26
2022-11-17T11:23:11.086Z,16.29
2022-11-17T11:25:45.342Z,16.30
2022-11-17T11:28:34.454Z,16.30
2022-11-17T11:31:16.555Z,16.28
2022-11-17T11:33:52.016Z,16.27
2022-11-17T11:36:37.321Z,16.24
2022-11-17T11:39:17.878Z,16.24
2022-11-17T11:42:08.178Z,16.24
2022-11-17T11:44:53.446Z,16.27
2022-11-17T11:47:45.373Z,16.31
2022-11-17T11:50:20.723Z,16.35
2022-11-17T11:52:57.879Z,16.35
2022-11-17T11:55:31.652Z,16.32
2022-11-17T11:58:12.607Z,16.26
2022-11-17T12:00:43.069Z,16.21
2022-11-17T12:03:25.565Z,16.14
2022-11-17T12:06:32.038Z,16.08
2022-11-17T12:09:26.948Z,16.03
2022-11-17T12:12:02.179Z,16.01
2022-11-17T12:14:32.910Z,15.98
2022-11-17T12:17:23.348Z,15.94
2022-11-17T12:19:57.341Z,15.93
2022-11-17T12:22:58.789Z,15.86
2022-11-17T12:25:31.376Z,15.83
2022-11-17T12:27:59.863Z,15.76
2022-11-17T12:30:54.074Z,15.67
2022-11-17T12:33:23.514Z,15.66
2022-11-17T12:36:31.694Z,15.59
2022-11-17T12:39:01.667Z,15.61
2022-11-17T12:42:08.953Z,15.56
2022-11-17T12:45:02.049Z,15.53
2022-11-17T12:47:33.312Z,15.56
2022-11-17T12:50:34.347Z,15.57
2022-11-17T12:53:30.745Z,15.58
2022-11-17T12:56:57.283Z,15.57
2022-11-17T13:00:10.561Z,15.60
2022-11-17T13:03:10.828Z,15.65
2022-11-17T13:05:39.353Z,15.72
2022-11-17T13:08:23.674Z,15.73
2022-11-17T13:10:53.324Z,15.80
2022-11-17T13:13:24.806Z,15.84
2022-11-17T13:15:58.756Z,15.85
2022-11-17T13:18:32.909Z,15.86
2022-11-17T13:21:03.089Z,15.86
2022-11-17T13:23:33.061Z,15.81
2022-11-17T13:26:20.007Z,15.75
2022-11-17T13:28:49.151Z,15.72
2022-11-17T13:31:24.379Z,15.69
2022-11-17T13:34:07.257Z,15.67
2022-11-17T13:36:36.195Z,15.68
2022-11-17T13:39:05.091Z,15.69
2022-11-17T13:41:39.562Z,15.68
2022-11-17T13:44:16.030Z,15.70
2022-11-17T13:46:46.040Z,15.74
2022-11-17T13:49:35.409Z,15.75
2022-11-17T13:52:05.450Z,15.80
2022-11-17T13:54:34.494Z,15.83
2022-11-17T13:57:08.061Z,15.84
2022-11-17T13:59:40.117Z,15.85
2022-11-17T14:02:30.345Z,15.83
2022-11-17T14:05:26.054Z,15.81
2022-11-17T14:07:56.959Z,15.85
2022-11-17T14:10:33.144Z,15.82
2022-11-17T14:13:30.828Z,15.77
2022-11-17T14:16:01.061Z,15.77
2022-11-17T14:18:37.617Z,15.74
2022-11-17T14:21:15.678Z,15.73
2022-11-17T14:23:45.929Z,15.72
2022-11-17T14:26:21.072Z,15.71
2022-11-17T14:28:50.793Z,15.70
2022-11-17T14:31:19.563Z,15.72
2022-11-17T14:33:50.542Z,15.71
2022-11-17T14:36:19.208Z,15.69
2022-11-17T14:38:48.830Z,15.70
2022-11-17T14:41:18.529Z,15.68
2022-11-17T14:43:47.225Z,15.65
2022-11-17T14:46:25.088Z,15.59
2022-11-17T14:48:56.289Z,15.59
2022-11-17T14:51:25.682Z,15.58
2022-11-17T14:53:54.684Z,15.57
2022-11-17T14:56:25.524Z,15.56
2022-11-17T14:58:59.211Z,15.55
2022-11-17T15:01:31.087Z,15.56
2022-11-17T15:04:20.598Z,15.54
2022-11-17T15:06:51.790Z,15.52
2022-11-17T15:09:20.668Z,15.52
2022-11-17T15:11:49.420Z,15.51
2022-11-17T15:14:18.387Z,15.51
2022-11-17T15:16:47.214Z,15.48
2022-11-17T15:19:17.175Z,15.48
2022-11-17T15:21:45.579Z,15.45
2022-11-17T15:24:14.730Z,15.44
2022-11-17T15:26:43.594Z,15.42
2022-11-17T15:29:16.054Z,15.41
2022-11-17T15:31:44.899Z,15.41
2022-11-17T15:34:19.706Z,15.40
2022-11-17T15:36:50.317Z,15.39
2022-11-17T15:39:19.180Z,15.39
2022-11-17T15:41:48.896Z,15.39
2022-11-17T15:44:18.813Z,15.38
2022-11-17T15:46:48.144Z,15.37
2022-11-17T15:49:17.098Z,15.37
2022-11-17T15:51:45.765Z,15.37
2022-11-17T15:54:20.442Z,15.36
2022-11-17T15:56:50.942Z,15.35
2022-11-17T15:59:19.889Z,15.35
2022-11-17T16:01:48.904Z,15.34
2022-11-17T16:04:17.458Z,15.35
2022-11-17T16:06:47.456Z,15.34
2022-11-17T16:09:17.717Z,15.34
2022-11-17T16:11:46.701Z,15.34
2022-11-17T16:14:15.377Z,15.35
2022-11-17T16:16:46.393Z,15.36
2022-11-17T16:19:15.065Z,15.36
2022-11-17T16:21:44.619Z,15.36
2022-11-17T16:24:13.877Z,15.33
2022-11-17T16:26:44.836Z,15.33
2022-11-17T16:29:13.809Z,15.32
2022-11-17T16:31:42.570Z,15.32
2022-11-17T16:34:15.546Z,15.30
2022-11-17T16:36:45.471Z,15.30
2022-11-17T16:39:17.816Z,15.28
2022-11-17T16:41:50.272Z,15.29
2022-11-17T16:44:20.474Z,15.28
2022-11-17T16:46:50.831Z,15.26
2022-11-17T16:49:20.885Z,15.26
2022-11-17T16:51:51.637Z,15.25
2022-11-17T16:54:21.314Z,15.23
2022-11-17T16:56:51.180Z,15.21
2022-11-17T16:59:20.386Z,15.20
2022-11-17T17:01:49.454Z,15.18
2022-11-17T17:04:18.167Z,15.17
2022-11-17T17:06:46.881Z,15.17
2022-11-17T17:09:18.027Z,15.15
2022-11-17T17:11:52.652Z,15.12
2022-11-17T17:14:21.261Z,15.11
2022-11-17T17:16:50.853Z,15.10
2022-11-17T17:19:20.244Z,15.10
2022-11-17T17:21:48.996Z,15.10
2022-11-17T17:24:17.780Z,15.11
2022-11-17T17:26:47.833Z,15.10
2022-11-17T17:29:18.285Z,15.10
2022-11-17T17:31:47.247Z,15.08
2022-11-17T17:34:15.656Z,15.07
2022-11-17T17:36:44.524Z,15.02
2022-11-17T17:39:17.487Z,14.95
2022-11-17T17:41:46.762Z,14.91
2022-11-17T17:44:21.159Z,14.86
2022-11-17T17:46:51.873Z,14.83
2022-11-17T17:49:20.703Z,14.79
2022-11-17T17:51:49.981Z,14.76
2022-11-17T17:54:24.124Z,14.72
2022-11-17T17:57:00.429Z,14.72
2022-11-17T17:59:34.430Z,14.68
2022-11-17T18:02:04.387Z,14.68
2022-11-17T18:04:34.048Z,14.66
2022-11-17T18:07:03.950Z,14.66
2022-11-17T18:09:34.028Z,14.67
2022-11-17T18:12:03.380Z,14.68
2022-11-17T18:14:34.719Z,14.68
2022-11-17T18:17:04.162Z,14.66
2022-11-17T18:19:33.980Z,14.62
2022-11-17T18:22:04.499Z,14.59
2022-11-17T18:24:34.349Z,14.56
2022-11-17T18:27:04.069Z,14.53
2022-11-17T18:29:35.248Z,14.50
2022-11-17T18:32:05.488Z,14.48
2022-11-17T18:34:35.551Z,14.43
2022-11-17T18:37:04.833Z,14.43
2022-11-17T18:39:38.771Z,14.42
2022-11-17T18:42:09.335Z,14.39
2022-11-17T18:44:42.187Z,14.34
2022-11-17T18:47:12.450Z,14.33
2022-11-17T18:49:42.070Z,14.30
2022-11-17T18:52:11.484Z,14.30
2022-11-17T18:54:42.907Z,14.30
2022-11-17T18:57:13.660Z,14.29
2022-11-17T18:59:45.091Z,14.30
2022-11-17T19:02:18.055Z,14.30
2022-11-17T19:04:52.043Z,14.29
2022-11-17T19:07:23.477Z,14.26
2022-11-17T19:09:56.469Z,14.29
2022-11-17T19:12:29.751Z,14.31
2022-11-17T19:15:01.954Z,14.31
2022-11-17T19:17:33.063Z,14.28
2022-11-17T19:20:06.826Z,14.27
2022-11-17T19:22:38.712Z,14.26
2022-11-17T19:25:10.430Z,14.26
2022-11-17T19:27:43.922Z,14.29
2022-11-17T19:30:16.953Z,14.30
2022-11-17T19:32:46.849Z,14.33
2022-11-17T19:35:22.523Z,14.31
2022-11-17T19:37:52.689Z,14.29
2022-11-17T19:40:24.445Z,14.29
2022-11-17T19:42:55.127Z,14.32
2022-11-17T19:45:27.370Z,14.31
2022-11-17T19:47:57.601Z,14.32
2022-11-17T19:50:27.557Z,14.33
2022-11-17T19:53:02.477Z,14.33
2022-11-17T19:55:35.124Z,14.33
2022-11-17T19:58:04.947Z,14.34
2022-11-17T20:00:36.908Z,14.34
2022-11-17T20:03:07.225Z,14.36
2022-11-17T20:05:36.897Z,14.37
2022-11-17T20:08:07.314Z,14.36
2022-11-17T20:10:38.800Z,14.33
2022-11-17T20:13:09.081Z,14.33
2022-11-17T20:15:41.010Z,14.32
2022-11-17T20:18:11.069Z,14.34
2022-11-17T20:20:41.653Z,14.35
2022-11-17T20:23:12.211Z,14.34
2022-11-17T20:25:42.784Z,14.33
2022-11-17T20:28:13.385Z,14.32
2022-11-17T20:30:47.674Z,14.29
2022-11-17T20:33:17.169Z,14.26
2022-11-17T20:35:50.961Z,14.24
2022-11-17T20:38:20.624Z,14.25
2022-11-17T20:40:50.725Z,14.26
2022-11-17T20:43:20.733Z,14.27
2022-11-17T20:45:54.724Z,14.27
2022-11-17T20:48:26.080Z,14.29
2022-11-17T20:50:59.683Z,14.28
2022-11-17T20:53:31.848Z,14.29
2022-11-17T20:56:03.344Z,14.30
2022-11-17T20:58:33.722Z,14.29
2022-11-17T21:01:12.543Z,14.26
2022-11-17T21:03:42.228Z,14.24
2022-11-17T21:06:12.099Z,14.20
2022-11-17T21:08:43.829Z,14.16
2022-11-17T21:11:36.781Z,14.09
2022-11-17T21:14:08.132Z,14.03
2022-11-17T21:16:40.301Z,14.00
2022-11-17T21:19:10.075Z,13.97
2022-11-17T21:21:39.339Z,13.95
2022-11-17T21:24:09.030Z,13.93
2022-11-17T21:26:38.119Z,13.90
2022-11-17T21:29:07.182Z,13.88
2022-11-17T21:31:38.878Z,13.87
2022-11-17T21:34:08.737Z,13.85
2022-11-17T21:36:37.908Z,13.82
2022-11-17T21:39:06.760Z,13.78
2022-11-17T21:41:37.890Z,13.75
2022-11-17T21:44:06.850Z,13.74
2022-11-17T21:46:37.274Z,13.71
2022-11-17T21:49:05.861Z,13.70
2022-11-17T21:51:38.595Z,13.68
2022-11-17T21:54:09.861Z,13.66
2022-11-17T21:56:38.695Z,13.65
2022-11-17T21:59:11.764Z,13.64
2022-11-17T22:01:41.913Z,13.65
2022-11-17T22:04:12.624Z,13.68
2022-11-17T22:06:41.215Z,13.68
2022-11-17T22:09:09.757Z,13.71
2022-11-17T22:11:39.082Z,13.72
2022-11-17T22:14:11.355Z,13.74
2022-11-17T22:16:43.889Z,13.75
2022-11-17T22:19:14.153Z,13.78
2022-11-17T22:21:43.910Z,13.80
2022-11-17T22:24:13.971Z,13.80
2022-11-17T22:26:44.170Z,13.79
2022-11-17T22:29:15.867Z,13.80
2022-11-17T22:31:46.370Z,13.81
2022-11-17T22:34:15.481Z,13.80
2022-11-17T22:36:44.219Z,13.81
2022-11-17T22:39:13.080Z,13.81
2022-11-17T22:41:41.443Z,13.80
2022-11-17T22:44:13.301Z,13.78
2022-11-17T22:46:43.142Z,13.77
2022-11-17T22:49:13.465Z,13.76
2022-11-17T22:51:59.499Z,13.76
2022-11-17T22:54:27.920Z,13.76
2022-11-17T22:56:56.311Z,13.76
2022-11-17T22:59:24.878Z,13.76
2022-11-17T23:01:53.393Z,13.78
2022-11-17T23:04:24.105Z,13.77
2022-11-17T23:06:52.985Z,13.77
2022-11-17T23:09:21.520Z,13.75
2022-11-17T23:11:50.514Z,13.74
2022-11-17T23:14:18.982Z,13.72
2022-11-17T23:16:47.341Z,13.73
2022-11-17T23:19:16.536Z,13.73
2022-11-17T23:21:46.444Z,13.74
2022-11-17T23:24:14.923Z,13.73
2022-11-17T23:26:44.016Z,13.75
2022-11-17T23:29:12.537Z,13.76
2022-11-17T23:31:40.961Z,13.76
2022-11-17T23:34:11.282Z,13.75
2022-11-17T23:36:39.764Z,13.75
2022-11-17T23:39:09.728Z,13.76
2022-11-17T23:41:38.586Z,13.78
2022-11-17T23:44:07.466Z,13.79
2022-11-17T23:46:35.810Z,13.81
2022-11-17T23:49:04.731Z,13.81
2022-11-17T23:51:33.140Z,13.83
2022-11-17T23:54:02.938Z,13.82
2022-11-17T23:56:35.240Z,13.77
2022-11-17T23:59:04.367Z,13.73
